createdAt,value
2018-07-29T00:00:57.636Z,0.00
2018-07-29T00:01:57.672Z,0.00
2018-07-29T00:02:57.712Z,0.00
2018-07-29T00:03:57.730Z,0.00
2018-07-29T00:04:57.757Z,0.00
2018-07-29T00:05:57.794Z,0.00
2018-07-29T00:06:57.821Z,0.00
2018-07-29T00:07:57.845Z,0.00
2018-07-29T00:08:57.904Z,0.00
2018-07-29T00:09:57.907Z,0.00
2018-07-29T00:10:57.935Z,0.00
2018-07-29T00:11:57.974Z,0.00
2018-07-29T00:12:58.023Z,0.00
2018-07-29T00:13:58.032Z,0.00
2018-07-29T00:14:58.073Z,0.00
2018-07-29T00:15:58.102Z,0.00
2018-07-29T00:16:58.121Z,0.00
2018-07-29T00:17:58.157Z,0.00
2018-07-29T00:18:58.181Z,0.00
2018-07-29T00:19:58.217Z,0.00
2018-07-29T00:20:58.248Z,0.00
2018-07-29T00:21:58.277Z,0.00
2018-07-29T00:22:58.316Z,0.00
2018-07-29T00:23:58.339Z,0.00
2018-07-29T00:24:58.361Z,0.00
2018-07-29T00:25:58.389Z,0.00
2018-07-29T00:26:58.425Z,0.00
2018-07-29T00:27:58.453Z,0.00
2018-07-29T00:28:58.486Z,0.00
2018-07-29T00:29:58.520Z,0.00
2018-07-29T00:30:58.546Z,0.00
2018-07-29T00:31:58.571Z,0.00
2018-07-29T00:32:58.611Z,0.00
2018-07-29T00:33:58.641Z,0.00
2018-07-29T00:34:58.673Z,0.00
2018-07-29T00:35:58.691Z,0.00
2018-07-29T00:36:58.723Z,0.00
2018-07-29T00:37:58.767Z,0.00
2018-07-29T00:38:58.796Z,0.00
2018-07-29T00:39:58.814Z,0.00
2018-07-29T00:40:58.846Z,0.00
2018-07-29T00:41:58.877Z,0.00
2018-07-29T00:42:58.904Z,0.00
2018-07-29T00:43:58.943Z,0.00
2018-07-29T00:44:58.965Z,0.00
2018-07-29T00:45:58.992Z,0.00
2018-07-29T00:46:59.030Z,0.00
2018-07-29T00:47:59.056Z,0.00
2018-07-29T00:48:59.100Z,0.00
2018-07-29T00:49:59.120Z,0.00
2018-07-29T00:50:59.150Z,0.00
2018-07-29T00:51:59.187Z,0.00
2018-07-29T00:52:59.260Z,0.00
2018-07-29T00:53:59.237Z,0.00
2018-07-29T00:54:59.273Z,0.00
2018-07-29T00:55:59.301Z,0.00
2018-07-29T00:56:59.336Z,0.00
2018-07-29T00:57:59.368Z,0.00
2018-07-29T00:58:59.396Z,0.00
2018-07-29T00:59:59.426Z,0.00
2018-07-29T01:00:59.457Z,0.00
2018-07-29T01:01:59.509Z,0.00
2018-07-29T01:02:59.515Z,0.00
2018-07-29T01:03:59.551Z,0.00
2018-07-29T01:04:59.570Z,0.00
2018-07-29T01:05:59.603Z,0.00
2018-07-29T01:06:59.629Z,0.00
2018-07-29T01:07:59.675Z,0.00
2018-07-29T01:08:59.708Z,0.00
2018-07-29T01:09:59.721Z,0.00
2018-07-29T01:10:59.755Z,0.00
2018-07-29T01:11:59.779Z,0.00
2018-07-29T01:12:59.820Z,0.00
2018-07-29T01:13:59.845Z,0.00
2018-07-29T01:14:59.902Z,0.00
2018-07-29T01:15:59.915Z,0.00
2018-07-29T01:16:59.934Z,0.00
2018-07-29T01:18:00.015Z,0.00
2018-07-29T01:18:59.992Z,0.00
2018-07-29T01:20:00.131Z,0.00
2018-07-29T01:21:00.053Z,0.00
2018-07-29T01:22:00.085Z,0.00
2018-07-29T01:23:00.131Z,0.00
2018-07-29T01:24:00.143Z,0.00
2018-07-29T01:25:00.182Z,0.00
2018-07-29T01:26:00.210Z,0.00
2018-07-29T01:27:00.312Z,0.00
2018-07-29T01:28:00.268Z,0.00
2018-07-29T01:29:00.307Z,0.00
2018-07-29T01:30:00.324Z,0.00
2018-07-29T01:31:00.353Z,0.00
2018-07-29T01:32:00.400Z,0.00
2018-07-29T01:33:00.422Z,0.00
2018-07-29T01:34:00.445Z,0.00
2018-07-29T01:35:00.480Z,0.00
2018-07-29T01:36:00.515Z,0.00
2018-07-29T01:37:00.555Z,0.00
2018-07-29T01:38:00.570Z,0.00
2018-07-29T01:39:00.603Z,0.00
2018-07-29T01:40:00.630Z,0.00
2018-07-29T01:41:00.662Z,0.00
2018-07-29T01:42:00.693Z,0.00
2018-07-29T01:43:00.717Z,0.00
2018-07-29T01:44:00.749Z,0.00
2018-07-29T01:45:00.778Z,0.00
2018-07-29T01:46:00.809Z,0.00
2018-07-29T01:47:00.838Z,0.00
2018-07-29T01:48:00.869Z,0.00
2018-07-29T01:49:00.905Z,0.00
2018-07-29T01:50:00.931Z,0.00
2018-07-29T01:51:00.960Z,0.00
2018-07-29T01:52:01.002Z,0.00
2018-07-29T01:53:01.021Z,0.00
2018-07-29T01:54:01.050Z,0.00
2018-07-29T01:55:01.076Z,0.00
2018-07-29T01:56:01.112Z,0.00
2018-07-29T01:57:01.142Z,0.00
2018-07-29T01:58:01.171Z,0.00
2018-07-29T01:59:01.204Z,0.00
2018-07-29T02:00:01.231Z,0.00
2018-07-29T02:01:01.263Z,0.00
2018-07-29T02:02:01.291Z,0.00
2018-07-29T02:03:01.332Z,0.00
2018-07-29T02:04:01.353Z,0.00
2018-07-29T02:05:01.404Z,0.00
2018-07-29T02:06:01.423Z,0.00
2018-07-29T02:07:01.446Z,0.00
2018-07-29T02:08:01.471Z,0.00
2018-07-29T02:09:01.503Z,0.00
2018-07-29T02:10:01.536Z,0.00
2018-07-29T02:11:01.561Z,0.00
2018-07-29T02:12:01.591Z,0.00
2018-07-29T02:13:01.621Z,0.00
2018-07-29T02:14:01.653Z,0.00
2018-07-29T02:15:01.680Z,0.00
2018-07-29T02:16:01.778Z,0.00
2018-07-29T02:17:01.740Z,0.00
2018-07-29T02:18:01.773Z,0.00
2018-07-29T02:19:01.805Z,0.00
2018-07-29T02:20:01.833Z,0.00
2018-07-29T02:21:01.874Z,0.00
2018-07-29T02:22:01.908Z,0.00
2018-07-29T02:23:01.924Z,0.00
2018-07-29T02:24:01.955Z,0.00
2018-07-29T02:25:01.985Z,0.00
2018-07-29T02:26:02.017Z,0.00
2018-07-29T02:27:02.047Z,0.00
2018-07-29T02:28:02.078Z,0.00
2018-07-29T02:29:02.108Z,0.00
2018-07-29T02:30:02.142Z,0.00
2018-07-29T02:31:02.181Z,0.00
2018-07-29T02:32:02.197Z,0.00
2018-07-29T02:33:02.235Z,0.00
2018-07-29T02:34:02.252Z,0.00
2018-07-29T02:35:02.281Z,0.00
2018-07-29T02:36:02.373Z,0.00
2018-07-29T02:37:02.342Z,0.00
2018-07-29T02:38:02.372Z,0.00
2018-07-29T02:39:02.417Z,0.00
2018-07-29T02:40:02.440Z,0.00
2018-07-29T02:41:02.464Z,0.00
2018-07-29T02:42:02.495Z,0.00
2018-07-29T02:43:02.525Z,0.00
2018-07-29T02:44:02.586Z,0.00
2018-07-29T02:45:02.693Z,0.00
2018-07-29T02:46:02.635Z,0.00
2018-07-29T02:47:02.686Z,0.00
2018-07-29T02:48:02.678Z,0.00
2018-07-29T02:49:02.714Z,0.00
2018-07-29T02:50:02.738Z,0.00
2018-07-29T02:51:02.765Z,0.00
2018-07-29T02:52:02.799Z,0.00
2018-07-29T02:53:02.850Z,0.00
2018-07-29T02:54:02.857Z,0.00
2018-07-29T02:55:02.902Z,0.00
2018-07-29T02:56:02.913Z,0.00
2018-07-29T02:57:02.968Z,0.00
2018-07-29T02:58:03.007Z,0.00
2018-07-29T02:59:03.025Z,0.00
2018-07-29T03:00:03.039Z,0.00
2018-07-29T03:01:03.063Z,0.00
2018-07-29T03:02:03.092Z,0.00
2018-07-29T03:03:03.128Z,0.00
2018-07-29T03:04:03.157Z,0.00
2018-07-29T03:05:03.198Z,0.00
2018-07-29T03:06:03.216Z,0.00
2018-07-29T03:07:03.257Z,4.00
2018-07-29T03:08:03.274Z,4.00
2018-07-29T03:09:03.303Z,0.00
2018-07-29T03:10:03.336Z,0.00
2018-07-29T03:11:03.361Z,0.00
2018-07-29T03:12:03.394Z,4.00
2018-07-29T03:13:03.421Z,4.00
2018-07-29T03:14:03.452Z,4.00
2018-07-29T03:15:03.491Z,0.00
2018-07-29T03:16:03.534Z,4.00
2018-07-29T03:17:03.541Z,4.00
2018-07-29T03:18:03.638Z,4.00
2018-07-29T03:19:03.607Z,8.00
2018-07-29T03:20:03.630Z,4.00
2018-07-29T03:21:03.663Z,8.00
2018-07-29T03:22:03.689Z,8.00
2018-07-29T03:23:03.721Z,8.00
2018-07-29T03:24:03.756Z,8.00
2018-07-29T03:25:03.924Z,12.00
2018-07-29T03:26:03.815Z,8.00
2018-07-29T03:27:03.847Z,12.00
2018-07-29T03:28:03.869Z,8.00
2018-07-29T03:29:03.902Z,12.00
2018-07-29T03:30:03.932Z,12.00
2018-07-29T03:31:03.959Z,12.00
2018-07-29T03:32:03.991Z,12.00
2018-07-29T03:33:04.023Z,16.00
2018-07-29T03:34:04.058Z,12.00
2018-07-29T03:35:04.083Z,12.00
2018-07-29T03:36:04.116Z,16.00
2018-07-29T03:37:04.147Z,16.00
2018-07-29T03:38:04.174Z,20.00
2018-07-29T03:39:04.199Z,16.00
2018-07-29T03:40:04.226Z,16.00
2018-07-29T03:41:04.257Z,20.00
2018-07-29T03:42:04.292Z,16.00
2018-07-29T03:43:04.316Z,20.00
2018-07-29T03:44:04.347Z,20.00
2018-07-29T03:45:04.905Z,20.00
2018-07-29T03:46:04.415Z,24.00
2018-07-29T03:47:04.508Z,24.00
2018-07-29T03:48:04.470Z,20.00
2018-07-29T03:49:04.498Z,24.00
2018-07-29T03:50:04.527Z,24.00
2018-07-29T03:51:04.591Z,24.00
2018-07-29T03:52:04.587Z,24.00
2018-07-29T03:53:04.614Z,24.00
2018-07-29T03:54:04.652Z,28.00
2018-07-29T03:55:04.675Z,24.00
2018-07-29T03:56:04.730Z,28.00
2018-07-29T03:57:04.738Z,28.00
2018-07-29T03:58:04.785Z,32.00
2018-07-29T03:59:04.795Z,32.00
2018-07-29T04:00:04.824Z,32.00
2018-07-29T04:01:04.857Z,32.00
2018-07-29T04:02:04.880Z,32.00
2018-07-29T04:03:04.913Z,36.00
2018-07-29T04:04:04.936Z,36.00
2018-07-29T04:05:04.973Z,36.00
2018-07-29T04:06:05.004Z,36.00
2018-07-29T04:07:05.043Z,36.00
2018-07-29T04:08:05.062Z,40.00
2018-07-29T04:09:05.088Z,40.00
2018-07-29T04:10:05.121Z,44.00
2018-07-29T04:11:05.153Z,44.00
2018-07-29T04:12:05.249Z,44.00
2018-07-29T04:13:05.206Z,48.00
2018-07-29T04:14:05.238Z,48.00
2018-07-29T04:15:05.274Z,44.00
2018-07-29T04:16:05.298Z,44.00
2018-07-29T04:17:05.331Z,48.00
2018-07-29T04:18:05.361Z,48.00
2018-07-29T04:19:05.384Z,48.00
2018-07-29T04:20:05.415Z,52.00
2018-07-29T04:21:05.443Z,56.00
2018-07-29T04:22:05.478Z,64.00
2018-07-29T04:23:05.508Z,96.00
2018-07-29T04:24:05.538Z,112.00
2018-07-29T04:25:05.569Z,76.00
2018-07-29T04:26:05.595Z,72.00
2018-07-29T04:27:05.633Z,68.00
2018-07-29T04:28:05.657Z,68.00
2018-07-29T04:29:05.685Z,72.00
2018-07-29T04:30:05.712Z,72.00
2018-07-29T04:31:05.744Z,92.00
2018-07-29T04:32:05.777Z,112.00
2018-07-29T04:33:05.800Z,152.00
2018-07-29T04:34:05.831Z,220.00
2018-07-29T04:35:05.865Z,240.00
2018-07-29T04:36:05.984Z,240.00
2018-07-29T04:37:05.923Z,232.00
2018-07-29T04:38:05.957Z,196.00
2018-07-29T04:39:05.978Z,124.00
2018-07-29T04:40:06.021Z,92.00
2018-07-29T04:41:06.037Z,104.00
2018-07-29T04:42:06.067Z,116.00
2018-07-29T04:43:06.093Z,72.00
2018-07-29T04:44:06.124Z,76.00
2018-07-29T04:45:06.923Z,76.00
2018-07-29T04:46:06.186Z,80.00
2018-07-29T04:47:06.923Z,88.00
2018-07-29T04:48:06.248Z,92.00
2018-07-29T04:49:06.274Z,124.00
2018-07-29T04:50:06.306Z,168.00
2018-07-29T04:51:06.335Z,180.00
2018-07-29T04:52:06.366Z,348.00
2018-07-29T04:53:06.393Z,380.00
2018-07-29T04:54:06.415Z,216.00
2018-07-29T04:55:06.455Z,132.00
2018-07-29T04:56:06.495Z,304.00
2018-07-29T04:57:06.510Z,148.00
2018-07-29T04:58:06.572Z,368.00
2018-07-29T04:59:06.566Z,408.00
2018-07-29T05:00:06.593Z,444.00
2018-07-29T05:01:06.627Z,420.00
2018-07-29T05:02:06.660Z,420.00
2018-07-29T05:03:06.685Z,436.00
2018-07-29T05:04:06.718Z,428.00
2018-07-29T05:05:06.746Z,432.00
2018-07-29T05:06:06.779Z,432.00
2018-07-29T05:07:06.806Z,432.00
2018-07-29T05:08:06.838Z,436.00
2018-07-29T05:09:06.866Z,432.00
2018-07-29T05:10:06.896Z,400.00
2018-07-29T05:11:06.920Z,412.00
2018-07-29T05:12:06.960Z,412.00
2018-07-29T05:13:06.998Z,408.00
2018-07-29T05:14:07.011Z,400.00
2018-07-29T05:15:07.046Z,408.00
2018-07-29T05:16:07.084Z,432.00
2018-07-29T05:17:07.098Z,412.00
2018-07-29T05:18:07.133Z,400.00
2018-07-29T05:19:07.165Z,408.00
2018-07-29T05:20:07.192Z,436.00
2018-07-29T05:21:07.224Z,416.00
2018-07-29T05:22:07.249Z,416.00
2018-07-29T05:23:07.290Z,420.00
2018-07-29T05:24:07.320Z,408.00
2018-07-29T05:25:07.388Z,420.00
2018-07-29T05:26:07.507Z,420.00
2018-07-29T05:27:07.400Z,420.00
2018-07-29T05:28:07.429Z,420.00
2018-07-29T05:29:07.457Z,436.00
2018-07-29T05:30:07.490Z,436.00
2018-07-29T05:31:07.515Z,440.00
2018-07-29T05:32:07.548Z,440.00
2018-07-29T05:33:07.580Z,436.00
2018-07-29T05:34:07.608Z,444.00
2018-07-29T05:35:07.656Z,432.00
2018-07-29T05:36:07.670Z,436.00
2018-07-29T05:37:07.718Z,432.00
2018-07-29T05:38:07.727Z,400.00
2018-07-29T05:39:07.775Z,412.00
2018-07-29T05:40:07.787Z,404.00
2018-07-29T05:41:07.819Z,404.00
2018-07-29T05:42:07.849Z,400.00
2018-07-29T05:43:07.878Z,416.00
2018-07-29T05:44:07.914Z,404.00
2018-07-29T05:45:07.972Z,404.00
2018-07-29T05:46:07.981Z,408.00
2018-07-29T05:47:08.097Z,428.00
2018-07-29T05:48:08.034Z,228.00
2018-07-29T05:49:08.087Z,428.00
2018-07-29T05:50:08.085Z,420.00
2018-07-29T05:51:08.122Z,468.00
2018-07-29T05:52:08.142Z,452.00
2018-07-29T05:53:08.180Z,440.00
2018-07-29T05:54:08.212Z,316.00
2018-07-29T05:55:08.235Z,276.00
2018-07-29T05:56:08.498Z,332.00
2018-07-29T05:57:08.295Z,332.00
2018-07-29T05:58:08.329Z,476.00
2018-07-29T05:59:08.359Z,500.00
2018-07-29T06:00:08.383Z,532.00
2018-07-29T06:01:08.407Z,368.00
2018-07-29T06:02:08.441Z,524.00
2018-07-29T06:03:08.485Z,316.00
2018-07-29T06:04:08.513Z,480.00
2018-07-29T06:05:08.530Z,412.00
2018-07-29T06:06:08.569Z,488.00
2018-07-29T06:07:08.593Z,444.00
2018-07-29T06:08:08.627Z,428.00
2018-07-29T06:09:08.650Z,492.00
2018-07-29T06:10:08.679Z,448.00
2018-07-29T06:11:08.721Z,388.00
2018-07-29T06:12:08.785Z,356.00
2018-07-29T06:13:08.788Z,412.00
2018-07-29T06:14:08.808Z,392.00
2018-07-29T06:15:08.857Z,392.00
2018-07-29T06:16:08.859Z,400.00
2018-07-29T06:17:08.902Z,404.00
2018-07-29T06:18:08.917Z,388.00
2018-07-29T06:19:08.946Z,340.00
2018-07-29T06:20:08.990Z,324.00
2018-07-29T06:21:09.016Z,376.00
2018-07-29T06:22:09.041Z,432.00
2018-07-29T06:23:09.068Z,392.00
2018-07-29T06:24:09.098Z,484.00
2018-07-29T06:25:09.127Z,484.00
2018-07-29T06:26:09.158Z,424.00
2018-07-29T06:27:09.195Z,400.00
2018-07-29T06:28:09.215Z,432.00
2018-07-29T06:29:09.250Z,440.00
2018-07-29T06:30:09.283Z,468.00
2018-07-29T06:31:09.307Z,420.00
2018-07-29T06:32:09.336Z,384.00
2018-07-29T06:33:09.368Z,484.00
2018-07-29T06:34:09.396Z,552.00
2018-07-29T06:35:09.425Z,428.00
2018-07-29T06:36:09.465Z,588.00
2018-07-29T06:37:09.484Z,564.00
2018-07-29T06:38:09.520Z,516.00
2018-07-29T06:39:09.548Z,524.00
2018-07-29T06:40:09.580Z,480.00
2018-07-29T06:41:09.609Z,572.00
2018-07-29T06:42:09.635Z,496.00
2018-07-29T06:43:09.672Z,664.00
2018-07-29T06:44:09.694Z,644.00
2018-07-29T06:45:09.788Z,592.00
2018-07-29T06:46:09.768Z,480.00
2018-07-29T06:47:09.786Z,760.00
2018-07-29T06:48:09.811Z,452.00
2018-07-29T06:49:09.850Z,468.00
2018-07-29T06:50:09.882Z,460.00
2018-07-29T06:51:09.903Z,376.00
2018-07-29T06:52:09.935Z,648.00
2018-07-29T06:53:09.971Z,624.00
2018-07-29T06:54:10.041Z,724.00
2018-07-29T06:55:10.033Z,712.00
2018-07-29T06:56:10.070Z,716.00
2018-07-29T06:57:10.091Z,848.00
2018-07-29T06:58:10.146Z,936.00
2018-07-29T06:59:10.143Z,848.00
2018-07-29T07:00:10.183Z,844.00
2018-07-29T07:01:10.205Z,784.00
2018-07-29T07:02:10.283Z,772.00
2018-07-29T07:03:10.285Z,732.00
2018-07-29T07:04:10.305Z,652.00
2018-07-29T07:05:10.338Z,616.00
2018-07-29T07:06:10.370Z,620.00
2018-07-29T07:07:10.971Z,680.00
2018-07-29T07:08:10.437Z,632.00
2018-07-29T07:09:10.451Z,640.00
2018-07-29T07:10:10.474Z,644.00
2018-07-29T07:11:10.530Z,628.00
2018-07-29T07:12:10.684Z,644.00
2018-07-29T07:13:10.690Z,668.00
2018-07-29T07:14:11.488Z,660.00
2018-07-29T07:15:10.690Z,672.00
2018-07-29T07:16:10.747Z,668.00
2018-07-29T07:18:10.820Z,672.00
2018-07-29T07:19:10.741Z,684.00
2018-07-29T07:20:10.777Z,676.00
2018-07-29T07:21:10.804Z,680.00
2018-07-29T07:22:10.843Z,696.00
2018-07-29T07:23:10.875Z,688.00
2018-07-29T07:24:10.902Z,736.00
2018-07-29T07:25:10.923Z,728.00
2018-07-29T07:26:11.017Z,756.00
2018-07-29T07:27:11.011Z,800.00
2018-07-29T07:28:11.013Z,836.00
2018-07-29T07:29:11.042Z,888.00
2018-07-29T07:30:11.076Z,572.00
2018-07-29T07:31:11.135Z,764.00
2018-07-29T07:32:11.139Z,772.00
2018-07-29T07:33:11.167Z,812.00
2018-07-29T07:34:11.190Z,808.00
2018-07-29T07:35:11.222Z,804.00
2018-07-29T07:36:11.265Z,808.00
2018-07-29T07:37:11.321Z,820.00
2018-07-29T07:38:11.329Z,908.00
2018-07-29T07:39:11.339Z,932.00
2018-07-29T07:40:11.372Z,652.00
2018-07-29T07:41:11.404Z,516.00
2018-07-29T07:42:11.443Z,508.00
2018-07-29T07:43:11.473Z,516.00
2018-07-29T07:44:11.492Z,480.00
2018-07-29T07:45:11.534Z,532.00
2018-07-29T07:46:11.551Z,612.00
2018-07-29T07:47:11.594Z,648.00
2018-07-29T07:48:11.628Z,680.00
2018-07-29T07:49:11.643Z,476.00
2018-07-29T07:50:11.671Z,784.00
2018-07-29T07:51:11.698Z,448.00
2018-07-29T07:52:11.727Z,960.00
2018-07-29T07:53:11.772Z,972.00
2018-07-29T07:54:11.824Z,968.00
2018-07-29T07:55:11.816Z,976.00
2018-07-29T07:56:11.901Z,992.00
2018-07-29T07:57:11.891Z,1012.00
2018-07-29T07:58:11.907Z,848.00
2018-07-29T07:59:11.934Z,780.00
2018-07-29T08:00:11.964Z,812.00
2018-07-29T08:01:12.110Z,1168.00
2018-07-29T08:02:12.060Z,1192.00
2018-07-29T08:03:12.058Z,1328.00
2018-07-29T08:04:12.088Z,712.00
2018-07-29T08:05:12.231Z,1128.00
2018-07-29T08:06:12.156Z,1232.00
2018-07-29T08:07:12.189Z,1224.00
2018-07-29T08:08:12.210Z,1192.00
2018-07-29T08:09:12.260Z,1216.00
2018-07-29T08:10:12.268Z,1244.00
2018-07-29T08:11:12.300Z,1248.00
2018-07-29T08:12:12.324Z,1232.00
2018-07-29T08:13:12.356Z,1288.00
2018-07-29T08:14:12.401Z,1312.00
2018-07-29T08:15:12.415Z,1320.00
2018-07-29T08:16:12.460Z,1332.00
2018-07-29T08:17:12.483Z,1360.00
2018-07-29T08:18:12.515Z,1340.00
2018-07-29T08:19:12.531Z,1296.00
2018-07-29T08:20:12.564Z,1364.00
2018-07-29T08:21:12.596Z,900.00
2018-07-29T08:22:12.649Z,1324.00
2018-07-29T08:23:12.653Z,1348.00
2018-07-29T08:24:12.688Z,760.00
2018-07-29T08:25:12.736Z,788.00
2018-07-29T08:26:12.746Z,980.00
2018-07-29T08:27:12.785Z,1600.00
2018-07-29T08:28:12.811Z,1624.00
2018-07-29T08:29:12.835Z,1656.00
2018-07-29T08:30:12.867Z,1636.00
2018-07-29T08:31:12.895Z,1648.00
2018-07-29T08:32:12.925Z,1672.00
2018-07-29T08:33:12.962Z,1724.00
2018-07-29T08:34:12.990Z,1476.00
2018-07-29T08:35:13.016Z,1212.00
2018-07-29T08:36:13.047Z,1516.00
2018-07-29T08:37:13.080Z,1724.00
2018-07-29T08:38:13.106Z,1676.00
2018-07-29T08:39:13.141Z,1708.00
2018-07-29T08:40:13.168Z,1668.00
2018-07-29T08:41:13.202Z,1756.00
2018-07-29T08:42:13.237Z,1708.00
2018-07-29T08:43:13.272Z,1520.00
2018-07-29T08:44:13.333Z,1588.00
2018-07-29T08:45:13.476Z,1588.00
2018-07-29T08:46:13.354Z,1728.00
2018-07-29T08:47:13.377Z,1588.00
2018-07-29T08:48:13.420Z,1584.00
2018-07-29T08:49:13.442Z,1436.00
2018-07-29T08:50:13.474Z,1336.00
2018-07-29T08:51:13.525Z,1672.00
2018-07-29T08:52:13.541Z,1612.00
2018-07-29T08:53:13.563Z,1696.00
2018-07-29T08:54:13.592Z,1176.00
2018-07-29T08:55:13.629Z,1180.00
2018-07-29T08:56:13.651Z,1232.00
2018-07-29T08:57:13.699Z,1412.00
2018-07-29T08:58:13.735Z,1556.00
2018-07-29T08:59:13.746Z,1308.00
2018-07-29T09:00:13.776Z,1012.00
2018-07-29T09:01:13.818Z,968.00
2018-07-29T09:02:13.840Z,788.00
2018-07-29T09:03:13.871Z,1512.00
2018-07-29T09:04:13.896Z,1476.00
2018-07-29T09:05:14.048Z,1512.00
2018-07-29T09:06:13.969Z,1508.00
2018-07-29T09:07:13.999Z,1556.00
2018-07-29T09:08:14.040Z,1552.00
2018-07-29T09:09:14.077Z,1576.00
2018-07-29T09:10:14.087Z,1580.00
2018-07-29T09:11:14.112Z,1608.00
2018-07-29T09:12:14.146Z,1632.00
2018-07-29T09:13:14.175Z,1656.00
2018-07-29T09:14:14.236Z,1660.00
2018-07-29T09:15:14.235Z,1760.00
2018-07-29T09:16:14.283Z,1684.00
2018-07-29T09:17:14.294Z,1736.00
2018-07-29T09:18:14.329Z,1752.00
2018-07-29T09:19:14.364Z,1768.00
2018-07-29T09:20:14.392Z,1872.00
2018-07-29T09:21:14.416Z,1904.00
2018-07-29T09:22:14.450Z,1940.00
2018-07-29T09:23:14.482Z,1956.00
2018-07-29T09:24:14.513Z,2036.00
2018-07-29T09:25:14.611Z,2008.00
2018-07-29T09:26:14.573Z,1952.00
2018-07-29T09:27:14.607Z,1780.00
2018-07-29T09:28:14.633Z,1728.00
2018-07-29T09:29:14.662Z,2376.00
2018-07-29T09:30:14.751Z,2284.00
2018-07-29T09:31:14.734Z,2056.00
2018-07-29T09:32:14.754Z,1796.00
2018-07-29T09:33:14.809Z,1792.00
2018-07-29T09:34:14.821Z,2492.00
2018-07-29T09:35:14.847Z,2224.00
2018-07-29T09:36:14.881Z,1904.00
2018-07-29T09:37:14.906Z,1716.00
2018-07-29T09:38:14.941Z,1880.00
2018-07-29T09:39:14.977Z,2304.00
2018-07-29T09:40:15.014Z,2152.00
2018-07-29T09:41:15.029Z,1864.00
2018-07-29T09:42:15.073Z,1792.00
2018-07-29T09:43:15.096Z,1788.00
2018-07-29T09:44:15.125Z,1668.00
2018-07-29T09:45:15.185Z,1788.00
2018-07-29T09:46:15.195Z,2256.00
2018-07-29T09:47:15.216Z,2392.00
2018-07-29T09:48:15.259Z,2416.00
2018-07-29T09:49:15.282Z,2376.00
2018-07-29T09:50:15.309Z,2516.00
2018-07-29T09:51:15.345Z,2856.00
2018-07-29T09:52:15.372Z,3076.00
2018-07-29T09:53:15.420Z,3112.00
2018-07-29T09:54:15.433Z,3156.00
2018-07-29T09:55:15.467Z,3108.00
2018-07-29T09:56:15.500Z,3632.00
2018-07-29T09:57:15.521Z,3812.00
2018-07-29T09:58:15.562Z,4000.00
2018-07-29T09:59:15.586Z,3860.00
2018-07-29T10:00:15.618Z,4156.00
2018-07-29T10:01:15.659Z,4344.00
2018-07-29T10:02:15.687Z,3996.00
2018-07-29T10:03:15.717Z,3964.00
2018-07-29T10:04:15.738Z,3748.00
2018-07-29T10:05:15.772Z,4004.00
2018-07-29T10:06:15.803Z,4136.00
2018-07-29T10:07:15.834Z,3808.00
2018-07-29T10:08:15.866Z,3944.00
2018-07-29T10:09:15.955Z,4088.00
2018-07-29T10:10:15.927Z,4536.00
2018-07-29T10:11:15.960Z,5596.00
2018-07-29T10:12:15.997Z,6072.00
2018-07-29T10:13:16.034Z,5792.00
2018-07-29T10:14:16.170Z,4652.00
2018-07-29T10:15:16.088Z,9240.00
2018-07-29T10:16:16.127Z,6764.00
2018-07-29T10:17:16.157Z,4284.00
2018-07-29T10:18:16.181Z,6000.00
2018-07-29T10:19:16.209Z,8948.00
2018-07-29T10:20:16.237Z,9612.00
2018-07-29T10:21:16.290Z,8636.00
2018-07-29T10:22:16.300Z,7248.00
2018-07-29T10:23:16.448Z,9596.00
2018-07-29T10:24:16.363Z,9200.00
2018-07-29T10:25:16.531Z,9464.00
2018-07-29T10:26:16.436Z,4260.00
2018-07-29T10:27:16.459Z,7480.00
2018-07-29T10:28:16.491Z,2828.00
2018-07-29T10:29:16.538Z,4232.00
2018-07-29T10:30:16.567Z,6552.00
2018-07-29T10:31:16.584Z,6348.00
2018-07-29T10:32:16.618Z,4220.00
2018-07-29T10:33:16.649Z,7796.00
2018-07-29T10:34:16.763Z,5960.00
2018-07-29T10:35:16.720Z,6204.00
2018-07-29T10:36:16.757Z,7456.00
2018-07-29T10:37:16.778Z,4088.00
2018-07-29T10:38:16.808Z,4028.00
2018-07-29T10:39:16.855Z,10204.00
2018-07-29T10:40:16.869Z,8380.00
2018-07-29T10:41:16.904Z,10268.00
2018-07-29T10:42:16.934Z,9812.00
2018-07-29T10:43:16.982Z,9628.00
2018-07-29T10:44:17.010Z,9908.00
2018-07-29T10:45:17.073Z,2656.00
2018-07-29T10:46:17.063Z,6824.00
2018-07-29T10:47:17.136Z,10228.00
2018-07-29T10:48:17.134Z,10264.00
2018-07-29T10:49:17.193Z,10500.00
2018-07-29T10:50:17.191Z,10424.00
2018-07-29T10:51:17.228Z,10732.00
2018-07-29T10:52:17.287Z,10440.00
2018-07-29T10:53:17.295Z,10716.00
2018-07-29T10:54:17.321Z,10640.00
2018-07-29T10:55:17.355Z,10324.00
2018-07-29T10:56:17.403Z,10516.00
2018-07-29T10:57:17.429Z,10892.00
2018-07-29T10:58:17.452Z,11164.00
2018-07-29T10:59:17.486Z,11284.00
2018-07-29T11:00:17.566Z,11420.00
2018-07-29T11:01:17.554Z,11436.00
2018-07-29T11:02:17.593Z,10792.00
2018-07-29T11:03:17.628Z,10912.00
2018-07-29T11:04:17.660Z,11376.00
2018-07-29T11:05:17.701Z,11708.00
2018-07-29T11:06:17.718Z,11976.00
2018-07-29T11:07:17.751Z,12100.00
2018-07-29T11:08:17.785Z,12304.00
2018-07-29T11:09:17.820Z,12412.00
2018-07-29T11:10:17.914Z,12572.00
2018-07-29T11:11:17.957Z,12576.00
2018-07-29T11:12:17.968Z,12904.00
2018-07-29T11:13:17.956Z,12900.00
2018-07-29T11:14:17.989Z,13560.00
2018-07-29T11:15:18.020Z,13772.00
2018-07-29T11:16:18.067Z,14560.00
2018-07-29T11:17:18.089Z,23264.00
2018-07-29T11:18:18.141Z,36032.00
2018-07-29T11:19:18.160Z,36256.00
2018-07-29T11:20:18.221Z,31968.00
2018-07-29T11:21:18.240Z,35648.00
2018-07-29T11:22:18.269Z,41376.00
2018-07-29T11:23:18.308Z,41440.00
2018-07-29T11:24:18.354Z,38912.00
2018-07-29T11:25:18.404Z,39648.00
2018-07-29T11:26:18.409Z,37824.00
2018-07-29T11:27:18.454Z,31712.00
2018-07-29T11:28:18.543Z,29696.00
2018-07-29T11:29:18.529Z,33984.00
2018-07-29T11:30:18.589Z,32672.00
2018-07-29T11:31:18.595Z,28832.00
2018-07-29T11:32:18.631Z,27488.00
2018-07-29T11:33:18.674Z,18048.00
2018-07-29T11:34:18.724Z,4724.00
2018-07-29T11:35:18.749Z,1416.00
2018-07-29T11:36:18.781Z,1336.00
2018-07-29T11:37:18.822Z,1296.00
2018-07-29T11:38:18.891Z,1272.00
2018-07-29T11:39:18.900Z,1252.00
2018-07-29T11:40:18.926Z,1244.00
2018-07-29T11:41:18.967Z,1200.00
2018-07-29T11:42:19.001Z,1264.00
2018-07-29T11:43:19.057Z,1264.00
2018-07-29T11:44:19.075Z,1228.00
2018-07-29T11:45:19.105Z,1236.00
2018-07-29T11:46:19.143Z,1196.00
2018-07-29T11:47:19.172Z,1152.00
2018-07-29T11:48:19.218Z,1168.00
2018-07-29T11:49:19.239Z,1148.00
2018-07-29T11:50:19.276Z,1120.00
2018-07-29T11:51:19.311Z,1108.00
2018-07-29T11:52:19.343Z,1092.00
2018-07-29T11:53:19.402Z,1084.00
2018-07-29T11:54:19.417Z,1060.00
2018-07-29T11:55:19.442Z,1044.00
2018-07-29T11:56:19.487Z,1032.00
2018-07-29T11:57:19.544Z,1036.00
2018-07-29T11:58:19.549Z,1024.00
2018-07-29T11:59:19.576Z,1008.00
2018-07-29T12:00:19.610Z,1024.00
2018-07-29T12:01:19.642Z,996.00
2018-07-29T12:02:19.673Z,988.00
2018-07-29T12:03:19.705Z,980.00
2018-07-29T12:04:19.750Z,964.00
2018-07-29T12:05:19.775Z,952.00
2018-07-29T12:06:19.805Z,928.00
2018-07-29T12:07:19.857Z,916.00
2018-07-29T12:08:19.871Z,924.00
2018-07-29T12:09:19.904Z,904.00
2018-07-29T12:10:19.939Z,868.00
2018-07-29T12:11:19.994Z,932.00
2018-07-29T12:12:20.008Z,860.00
2018-07-29T12:13:20.037Z,848.00
2018-07-29T12:14:20.068Z,836.00
2018-07-29T12:15:20.116Z,856.00
2018-07-29T12:16:20.129Z,876.00
2018-07-29T12:17:20.174Z,924.00
2018-07-29T12:18:20.220Z,896.00
2018-07-29T12:19:20.230Z,848.00
2018-07-29T12:20:20.271Z,844.00
2018-07-29T12:21:20.300Z,852.00
2018-07-29T12:22:20.333Z,896.00
2018-07-29T12:23:20.365Z,872.00
2018-07-29T12:24:20.396Z,856.00
2018-07-29T12:25:20.423Z,844.00
2018-07-29T12:26:20.464Z,828.00
2018-07-29T12:27:20.497Z,836.00
2018-07-29T12:28:20.518Z,844.00
2018-07-29T12:29:20.549Z,888.00
2018-07-29T12:30:20.588Z,928.00
2018-07-29T12:31:20.620Z,956.00
2018-07-29T12:32:20.648Z,936.00
2018-07-29T12:33:20.693Z,936.00
2018-07-29T12:34:20.709Z,928.00
2018-07-29T12:35:21.671Z,872.00
2018-07-29T12:36:20.786Z,796.00